sensor_id;sensor_type;location;lat;lon;timestamp;pressure;altitude;pressure_sealevel;temperature;humidity
46379;BME280;32084;42.254;22.744;2023-04-30T00:01:19;94915.09;;;9.78;76.64
46379;BME280;32084;42.254;22.744;2023-04-30T00:03:45;94917.41;;;9.73;76.93
46379;BME280;32084;42.254;22.744;2023-04-30T00:06:11;94917.47;;;9.81;76.68
46379;BME280;32084;42.254;22.744;2023-04-30T00:08:37;94916.78;;;9.79;76.41
46379;BME280;32084;42.254;22.744;2023-04-30T00:11:03;94910.41;;;9.64;77.42
46379;BME280;32084;42.254;22.744;2023-04-30T00:13:30;94916.41;;;9.31;78.45
46379;BME280;32084;42.254;22.744;2023-04-30T00:15:56;94911.00;;;9.15;78.89
46379;BME280;32084;42.254;22.744;2023-04-30T00:18:22;94917.16;;;9.15;78.44
46379;BME280;32084;42.254;22.744;2023-04-30T00:20:48;94920.06;;;9.22;78.44
46379;BME280;32084;42.254;22.744;2023-04-30T00:23:16;94915.13;;;9.35;77.78
46379;BME280;32084;42.254;22.744;2023-04-30T00:25:42;94914.47;;;9.42;77.17
46379;BME280;32084;42.254;22.744;2023-04-30T00:28:08;94913.31;;;9.44;77.11
46379;BME280;32084;42.254;22.744;2023-04-30T00:30:34;94906.94;;;9.37;77.42
46379;BME280;32084;42.254;22.744;2023-04-30T00:33:00;94910.31;;;9.47;76.52
46379;BME280;32084;42.254;22.744;2023-04-30T00:35:26;94915.66;;;9.47;76.47
46379;BME280;32084;42.254;22.744;2023-04-30T00:37:52;94918.19;;;9.49;76.61
46379;BME280;32084;42.254;22.744;2023-04-30T00:40:19;94916.66;;;9.46;76.56
46379;BME280;32084;42.254;22.744;2023-04-30T00:42:45;94918.50;;;9.54;76.54
46379;BME280;32084;42.254;22.744;2023-04-30T00:45:11;94914.34;;;9.51;76.63
46379;BME280;32084;42.254;22.744;2023-04-30T00:47:37;94913.31;;;9.44;76.98
46379;BME280;32084;42.254;22.744;2023-04-30T00:50:03;94913.31;;;9.44;77.18
46379;BME280;32084;42.254;22.744;2023-04-30T00:52:29;94917.56;;;9.29;77.99
46379;BME280;32084;42.254;22.744;2023-04-30T00:54:55;94916.78;;;9.10;78.40
46379;BME280;32084;42.254;22.744;2023-04-30T00:57:21;94914.09;;;9.02;79.30
46379;BME280;32084;42.254;22.744;2023-04-30T00:59:48;94917.38;;;9.22;78.50
46379;BME280;32084;42.254;22.744;2023-04-30T01:02:14;94919.13;;;9.40;78.45
46379;BME280;32084;42.254;22.744;2023-04-30T01:04:40;94914.66;;;9.48;78.02
46379;BME280;32084;42.254;22.744;2023-04-30T01:07:06;94918.25;;;9.31;77.93
46379;BME280;32084;42.254;22.744;2023-04-30T01:09:32;94912.09;;;9.30;78.17
46379;BME280;32084;42.254;22.744;2023-04-30T01:15:06;94909.38;;;9.65;76.81
46379;BME280;32084;42.254;22.744;2023-04-30T01:20:01;94911.81;;;9.92;76.04
46379;BME280;32084;42.254;22.744;2023-04-30T01:25:11;94912.63;;;9.85;77.88
46379;BME280;32084;42.254;22.744;2023-04-30T01:30:11;94901.03;;;9.60;78.26
46379;BME280;32084;42.254;22.744;2023-04-30T01:32:38;94899.59;;;9.73;77.62
46379;BME280;32084;42.254;22.744;2023-04-30T01:35:04;94902.44;;;9.88;77.26
46379;BME280;32084;42.254;22.744;2023-04-30T01:40:07;94896.47;;;9.94;77.65
46379;BME280;32084;42.254;22.744;2023-04-30T01:42:44;94897.28;;;9.87;78.67
46379;BME280;32084;42.254;22.744;2023-04-30T01:47:47;94887.06;;;9.74;78.98
46379;BME280;32084;42.254;22.744;2023-04-30T01:50:24;94894.41;;;9.72;79.23
46379;BME280;32084;42.254;22.744;2023-04-30T01:52:54;94884.88;;;9.69;79.62
46379;BME280;32084;42.254;22.744;2023-04-30T01:55:26;94894.84;;;9.59;79.75
46379;BME280;32084;42.254;22.744;2023-04-30T01:57:56;94887.50;;;9.53;80.70
46379;BME280;32084;42.254;22.744;2023-04-30T02:00:26;94891.81;;;9.54;80.08
46379;BME280;32084;42.254;22.744;2023-04-30T02:02:52;94898.03;;;9.63;79.21
46379;BME280;32084;42.254;22.744;2023-04-30T02:05:18;94896.03;;;9.65;79.32
46379;BME280;32084;42.254;22.744;2023-04-30T02:07:45;94893.38;;;9.65;79.40
46379;BME280;32084;42.254;22.744;2023-04-30T02:10:13;94893.88;;;9.60;79.59
46379;BME280;32084;42.254;22.744;2023-04-30T02:12:39;94892.00;;;9.52;79.81
46379;BME280;32084;42.254;22.744;2023-04-30T02:15:05;94895.97;;;9.48;80.27
46379;BME280;32084;42.254;22.744;2023-04-30T02:17:32;94898.91;;;9.37;81.22
46379;BME280;32084;42.254;22.744;2023-04-30T02:19:58;94897.41;;;9.34;80.79
46379;BME280;32084;42.254;22.744;2023-04-30T02:22:24;94907.25;;;9.34;81.03
46379;BME280;32084;42.254;22.744;2023-04-30T02:24:50;94899.38;;;9.24;81.44
46379;BME280;32084;42.254;22.744;2023-04-30T02:27:20;94904.75;;;9.32;80.45
46379;BME280;32084;42.254;22.744;2023-04-30T02:29:46;94895.59;;;9.35;80.59
46379;BME280;32084;42.254;22.744;2023-04-30T02:32:12;94895.94;;;9.40;80.29
46379;BME280;32084;42.254;22.744;2023-04-30T02:34:39;94903.59;;;9.35;81.01
46379;BME280;32084;42.254;22.744;2023-04-30T02:37:06;94902.09;;;9.32;81.45
46379;BME280;32084;42.254;22.744;2023-04-30T02:39:32;94906.38;;;9.25;81.31
46379;BME280;32084;42.254;22.744;2023-04-30T02:41:58;94899.19;;;9.26;81.06
46379;BME280;32084;42.254;22.744;2023-04-30T02:44:24;94903.47;;;9.10;82.57
46379;BME280;32084;42.254;22.744;2023-04-30T02:46:50;94907.53;;;9.23;81.73
46379;BME280;32084;42.254;22.744;2023-04-30T02:49:16;94908.41;;;9.31;81.30
46379;BME280;32084;42.254;22.744;2023-04-30T02:51:42;94913.56;;;9.25;82.10
46379;BME280;32084;42.254;22.744;2023-04-30T02:54:08;94910.72;;;9.26;82.61
46379;BME280;32084;42.254;22.744;2023-04-30T02:56:35;94907.25;;;9.34;81.26
46379;BME280;32084;42.254;22.744;2023-04-30T02:59:01;94906.78;;;9.38;81.60
46379;BME280;32084;42.254;22.744;2023-04-30T03:01:27;94910.31;;;9.39;81.41
46379;BME280;32084;42.254;22.744;2023-04-30T03:03:52;94919.66;;;9.43;82.46
46379;BME280;32084;42.254;22.744;2023-04-30T03:06:18;94910.97;;;9.41;82.24
46379;BME280;32084;42.254;22.744;2023-04-30T03:08:44;94912.88;;;9.57;81.38
46379;BME280;32084;42.254;22.744;2023-04-30T03:11:11;94914.22;;;9.61;81.12
46379;BME280;32084;42.254;22.744;2023-04-30T03:13:36;94919.41;;;9.63;81.33
46379;BME280;32084;42.254;22.744;2023-04-30T03:16:03;94911.69;;;9.51;82.15
46379;BME280;32084;42.254;22.744;2023-04-30T03:18:32;94917.84;;;9.52;81.85
46379;BME280;32084;42.254;22.744;2023-04-30T03:20:58;94920.00;;;9.48;81.92
46379;BME280;32084;42.254;22.744;2023-04-30T03:23:25;94929.31;;;9.44;82.95
46379;BME280;32084;42.254;22.744;2023-04-30T03:25:51;94924.84;;;9.45;83.02
46379;BME280;32084;42.254;22.744;2023-04-30T03:28:17;94923.53;;;9.49;82.09
46379;BME280;32084;42.254;22.744;2023-04-30T03:30:44;94924.19;;;9.51;82.26
46379;BME280;32084;42.254;22.744;2023-04-30T03:33:10;94932.50;;;9.48;83.06
46379;BME280;32084;42.254;22.744;2023-04-30T03:35:36;94928.28;;;9.37;82.81
46379;BME280;32084;42.254;22.744;2023-04-30T03:38:02;94936.09;;;9.30;83.57
46379;BME280;32084;42.254;22.744;2023-04-30T03:40:28;94935.53;;;9.18;84.10
46379;BME280;32084;42.254;22.744;2023-04-30T03:42:54;94931.03;;;9.19;84.20
46379;BME280;32084;42.254;22.744;2023-04-30T03:45:20;94941.69;;;9.19;84.23
46379;BME280;32084;42.254;22.744;2023-04-30T03:47:46;94941.72;;;9.27;83.87
46379;BME280;32084;42.254;22.744;2023-04-30T03:50:13;94938.13;;;9.36;83.66
46379;BME280;32084;42.254;22.744;2023-04-30T03:52:39;94950.00;;;9.42;82.85
46379;BME280;32084;42.254;22.744;2023-04-30T03:55:05;94947.84;;;9.46;82.68
46379;BME280;32084;42.254;22.744;2023-04-30T03:57:32;94946.06;;;9.54;82.12
46379;BME280;32084;42.254;22.744;2023-04-30T03:59:58;94957.56;;;9.55;82.49
46379;BME280;32084;42.254;22.744;2023-04-30T04:02:24;94957.94;;;9.60;82.63
46379;BME280;32084;42.254;22.744;2023-04-30T04:04:50;94957.97;;;9.68;81.93
46379;BME280;32084;42.254;22.744;2023-04-30T04:07:16;94950.13;;;9.75;81.69
46379;BME280;32084;42.254;22.744;2023-04-30T04:09:42;94950.50;;;9.80;83.88
46379;BME280;32084;42.254;22.744;2023-04-30T04:12:08;94962.88;;;9.89;83.13
46379;BME280;32084;42.254;22.744;2023-04-30T04:14:34;94959.56;;;9.95;83.22
46379;BME280;32084;42.254;22.744;2023-04-30T04:17:00;94970.25;;;9.95;83.92
46379;BME280;32084;42.254;22.744;2023-04-30T04:19:26;94966.53;;;9.88;83.61
46379;BME280;32084;42.254;22.744;2023-04-30T04:21:52;94952.84;;;9.83;82.26
46379;BME280;32084;42.254;22.744;2023-04-30T04:24:19;94963.41;;;10.01;81.24
46379;BME280;32084;42.254;22.744;2023-04-30T04:26:45;94968.00;;;10.17;80.45
46379;BME280;32084;42.254;22.744;2023-04-30T04:29:11;94971.06;;;10.30;79.61
46379;BME280;32084;42.254;22.744;2023-04-30T04:31:37;94982.09;;;10.44;80.21
46379;BME280;32084;42.254;22.744;2023-04-30T04:34:03;94975.09;;;10.51;80.09
46379;BME280;32084;42.254;22.744;2023-04-30T04:36:30;94983.13;;;10.59;79.01
46379;BME280;32084;42.254;22.744;2023-04-30T04:38:56;94973.44;;;10.66;79.75
46379;BME280;32084;42.254;22.744;2023-04-30T04:41:30;94986.63;;;10.68;79.37
46379;BME280;32084;42.254;22.744;2023-04-30T04:43:57;94988.31;;;10.61;79.93
46379;BME280;32084;42.254;22.744;2023-04-30T04:46:24;94993.34;;;10.72;80.08
46379;BME280;32084;42.254;22.744;2023-04-30T04:48:53;94995.81;;;10.73;80.74
46379;BME280;32084;42.254;22.744;2023-04-30T04:51:19;94995.66;;;10.59;81.54
46379;BME280;32084;42.254;22.744;2023-04-30T04:53:45;94993.47;;;10.62;82.46
46379;BME280;32084;42.254;22.744;2023-04-30T04:56:11;94992.84;;;10.68;83.01
46379;BME280;32084;42.254;22.744;2023-04-30T04:58:37;94989.31;;;10.76;83.44
46379;BME280;32084;42.254;22.744;2023-04-30T05:01:04;94998.00;;;10.86;83.34
46379;BME280;32084;42.254;22.744;2023-04-30T05:03:31;94986.50;;;10.86;83.53
46379;BME280;32084;42.254;22.744;2023-04-30T05:05:57;94989.47;;;10.83;83.30
46379;BME280;32084;42.254;22.744;2023-04-30T05:08:23;94983.13;;;10.92;83.64
46379;BME280;32084;42.254;22.744;2023-04-30T05:10:49;94980.44;;;11.00;82.84
46379;BME280;32084;42.254;22.744;2023-04-30T05:13:15;94990.31;;;11.00;83.28
46379;BME280;32084;42.254;22.744;2023-04-30T05:15:41;95000.69;;;11.03;83.02
46379;BME280;32084;42.254;22.744;2023-04-30T05:18:07;94992.84;;;11.01;83.24
46379;BME280;32084;42.254;22.744;2023-04-30T05:20:33;94998.03;;;11.03;83.16
46379;BME280;32084;42.254;22.744;2023-04-30T05:22:59;94993.16;;;11.14;83.54
46379;BME280;32084;42.254;22.744;2023-04-30T05:25:25;94998.00;;;11.11;84.58
46379;BME280;32084;42.254;22.744;2023-04-30T05:27:52;95002.84;;;11.24;83.17
46379;BME280;32084;42.254;22.744;2023-04-30T05:30:18;95000.19;;;11.16;80.14
46379;BME280;32084;42.254;22.744;2023-04-30T05:32:44;94997.31;;;11.33;78.78
46379;BME280;32084;42.254;22.744;2023-04-30T05:35:15;95003.84;;;11.23;74.55
46379;BME280;32084;42.254;22.744;2023-04-30T05:37:41;95006.53;;;11.23;76.50
46379;BME280;32084;42.254;22.744;2023-04-30T05:40:07;94996.84;;;11.22;76.14
46379;BME280;32084;42.254;22.744;2023-04-30T05:42:34;95009.53;;;11.28;76.90
46379;BME280;32084;42.254;22.744;2023-04-30T05:45:00;95009.19;;;11.23;76.69
46379;BME280;32084;42.254;22.744;2023-04-30T05:47:26;95008.88;;;11.26;76.38
46379;BME280;32084;42.254;22.744;2023-04-30T05:49:52;95006.53;;;11.31;74.85
46379;BME280;32084;42.254;22.744;2023-04-30T05:52:19;95009.84;;;11.41;74.63
46379;BME280;32084;42.254;22.744;2023-04-30T05:54:45;95009.34;;;11.54;74.60
46379;BME280;32084;42.254;22.744;2023-04-30T05:57:12;95010.84;;;11.65;73.91
46379;BME280;32084;42.254;22.744;2023-04-30T05:59:38;95013.97;;;11.77;74.43
46379;BME280;32084;42.254;22.744;2023-04-30T06:02:05;95009.91;;;11.89;75.17
46379;BME280;32084;42.254;22.744;2023-04-30T06:04:31;95012.91;;;12.02;74.57
46379;BME280;32084;42.254;22.744;2023-04-30T06:06:57;95016.22;;;12.13;73.70
46379;BME280;32084;42.254;22.744;2023-04-30T06:09:23;95017.44;;;12.02;75.36
46379;BME280;32084;42.254;22.744;2023-04-30T06:11:49;95020.44;;;12.07;75.05
46379;BME280;32084;42.254;22.744;2023-04-30T06:14:17;95025.44;;;12.10;73.55
46379;BME280;32084;42.254;22.744;2023-04-30T06:16:43;95023.22;;;12.22;74.16
46379;BME280;32084;42.254;22.744;2023-04-30T06:19:10;95015.66;;;12.25;73.33
46379;BME280;32084;42.254;22.744;2023-04-30T06:21:36;95022.38;;;12.29;72.29
46379;BME280;32084;42.254;22.744;2023-04-30T06:24:02;95011.38;;;12.47;73.99
46379;BME280;32084;42.254;22.744;2023-04-30T06:26:28;95013.59;;;12.67;73.52
46379;BME280;32084;42.254;22.744;2023-04-30T06:28:54;95013.31;;;12.85;70.87
46379;BME280;32084;42.254;22.744;2023-04-30T06:31:21;95017.16;;;13.28;70.46
46379;BME280;32084;42.254;22.744;2023-04-30T06:33:47;95017.13;;;13.37;70.54
46379;BME280;32084;42.254;22.744;2023-04-30T06:36:13;95020.84;;;13.36;68.75
46379;BME280;32084;42.254;22.744;2023-04-30T06:38:39;95022.16;;;13.70;67.20
46379;BME280;32084;42.254;22.744;2023-04-30T06:41:05;95024.13;;;14.20;68.04
46379;BME280;32084;42.254;22.744;2023-04-30T06:43:31;95022.25;;;14.66;67.03
46379;BME280;32084;42.254;22.744;2023-04-30T06:45:57;95032.34;;;15.00;64.98
46379;BME280;32084;42.254;22.744;2023-04-30T06:48:23;95023.53;;;14.70;63.35
46379;BME280;32084;42.254;22.744;2023-04-30T06:50:49;95024.75;;;14.67;65.80
46379;BME280;32084;42.254;22.744;2023-04-30T06:53:15;95024.28;;;14.49;63.97
46379;BME280;32084;42.254;22.744;2023-04-30T06:55:41;95028.28;;;14.38;65.06
46379;BME280;32084;42.254;22.744;2023-04-30T06:58:07;95022.44;;;14.49;64.91
46379;BME280;32084;42.254;22.744;2023-04-30T07:00:34;95021.16;;;14.60;65.29
46379;BME280;32084;42.254;22.744;2023-04-30T07:03:00;95020.50;;;14.94;64.27
46379;BME280;32084;42.254;22.744;2023-04-30T07:05:28;95030.31;;;15.23;61.63
46379;BME280;32084;42.254;22.744;2023-04-30T07:07:54;95021.13;;;15.39;60.69
46379;BME280;32084;42.254;22.744;2023-04-30T07:10:20;95023.78;;;15.33;59.97
46379;BME280;32084;42.254;22.744;2023-04-30T07:12:46;95032.88;;;15.10;59.83
46379;BME280;32084;42.254;22.744;2023-04-30T07:15:12;95025.44;;;15.12;60.57
46379;BME280;32084;42.254;22.744;2023-04-30T07:17:38;95029.06;;;14.83;60.83
46379;BME280;32084;42.254;22.744;2023-04-30T07:20:06;95027.41;;;14.82;62.09
46379;BME280;32084;42.254;22.744;2023-04-30T07:22:33;95026.94;;;14.78;61.25
46379;BME280;32084;42.254;22.744;2023-04-30T07:24:59;95026.69;;;14.95;60.88
46379;BME280;32084;42.254;22.744;2023-04-30T07:27:26;95022.66;;;15.06;61.57
46379;BME280;32084;42.254;22.744;2023-04-30T07:29:53;95020.28;;;15.17;61.86
46379;BME280;32084;42.254;22.744;2023-04-30T07:32:19;95025.63;;;15.32;60.51
46379;BME280;32084;42.254;22.744;2023-04-30T07:34:45;95018.16;;;15.34;59.74
46379;BME280;32084;42.254;22.744;2023-04-30T07:37:11;95019.34;;;15.47;60.79
46379;BME280;32084;42.254;22.744;2023-04-30T07:39:38;95014.38;;;15.29;61.06
46379;BME280;32084;42.254;22.744;2023-04-30T07:42:04;95014.66;;;15.34;61.89
46379;BME280;32084;42.254;22.744;2023-04-30T07:44:31;95017.41;;;15.40;62.00
46379;BME280;32084;42.254;22.744;2023-04-30T07:46:57;95029.47;;;15.45;62.00
46379;BME280;32084;42.254;22.744;2023-04-30T07:49:24;95028.41;;;15.67;63.09
46379;BME280;32084;42.254;22.744;2023-04-30T07:51:50;95025.69;;;16.24;61.93
46379;BME280;32084;42.254;22.744;2023-04-30T07:54:16;95028.63;;;16.77;60.21
46379;BME280;32084;42.254;22.744;2023-04-30T07:56:42;95028.00;;;17.97;57.53
46379;BME280;32084;42.254;22.744;2023-04-30T07:59:08;95035.06;;;19.21;55.34
46379;BME280;32084;42.254;22.744;2023-04-30T08:01:34;95036.06;;;19.59;51.18
46379;BME280;32084;42.254;22.744;2023-04-30T08:04:00;95038.28;;;19.68;50.06
46379;BME280;32084;42.254;22.744;2023-04-30T08:06:26;95031.13;;;20.06;51.39
46379;BME280;32084;42.254;22.744;2023-04-30T08:08:53;95031.63;;;20.40;50.56
46379;BME280;32084;42.254;22.744;2023-04-30T08:11:19;95027.41;;;20.81;50.31
46379;BME280;32084;42.254;22.744;2023-04-30T08:17:08;95037.50;;;20.92;46.53
46379;BME280;32084;42.254;22.744;2023-04-30T08:19:35;95034.06;;;20.85;47.55
46379;BME280;32084;42.254;22.744;2023-04-30T08:22:01;95025.75;;;19.99;49.92
46379;BME280;32084;42.254;22.744;2023-04-30T08:24:27;95038.47;;;19.42;49.65
46379;BME280;32084;42.254;22.744;2023-04-30T08:26:53;95029.56;;;18.96;50.85
46379;BME280;32084;42.254;22.744;2023-04-30T08:29:19;95027.06;;;19.01;51.30
46379;BME280;32084;42.254;22.744;2023-04-30T08:31:45;95020.50;;;18.84;52.10
46379;BME280;32084;42.254;22.744;2023-04-30T08:34:12;95021.28;;;18.78;51.86
46379;BME280;32084;42.254;22.744;2023-04-30T08:36:38;95023.03;;;18.65;51.41
46379;BME280;32084;42.254;22.744;2023-04-30T08:39:04;95026.59;;;19.04;49.68
46379;BME280;32084;42.254;22.744;2023-04-30T08:41:31;95025.34;;;20.39;46.67
46379;BME280;32084;42.254;22.744;2023-04-30T08:43:58;95025.44;;;20.33;45.94
46379;BME280;32084;42.254;22.744;2023-04-30T08:46:26;95031.50;;;20.09;44.34
46379;BME280;32084;42.254;22.744;2023-04-30T08:48:53;95024.81;;;19.87;46.32
46379;BME280;32084;42.254;22.744;2023-04-30T08:51:19;95028.19;;;19.82;45.90
46379;BME280;32084;42.254;22.744;2023-04-30T08:53:46;95020.28;;;19.81;46.27
46379;BME280;32084;42.254;22.744;2023-04-30T08:56:15;95013.75;;;19.57;47.18
46379;BME280;32084;42.254;22.744;2023-04-30T08:58:41;95016.88;;;19.28;48.23
46379;BME280;32084;42.254;22.744;2023-04-30T09:01:08;95012.66;;;19.39;48.17
46379;BME280;32084;42.254;22.744;2023-04-30T09:03:35;95018.69;;;19.41;47.02
46379;BME280;32084;42.254;22.744;2023-04-30T09:06:01;95024.06;;;19.16;47.25
46379;BME280;32084;42.254;22.744;2023-04-30T09:08:46;95020.94;;;19.13;48.56
46379;BME280;32084;42.254;22.744;2023-04-30T09:13:51;95029.72;;;19.40;47.98
46379;BME280;32084;42.254;22.744;2023-04-30T09:16:20;95020.28;;;19.17;49.71
46379;BME280;32084;42.254;22.744;2023-04-30T09:18:48;95018.25;;;19.13;49.86
46379;BME280;32084;42.254;22.744;2023-04-30T09:21:14;95011.53;;;19.22;51.25
46379;BME280;32084;42.254;22.744;2023-04-30T09:23:53;95003.16;;;19.23;52.91
46379;BME280;32084;42.254;22.744;2023-04-30T09:26:26;95001.94;;;19.19;51.12
46379;BME280;32084;42.254;22.744;2023-04-30T09:28:56;95001.59;;;19.09;52.11
46379;BME280;32084;42.254;22.744;2023-04-30T09:31:22;94997.00;;;19.09;51.74
46379;BME280;32084;42.254;22.744;2023-04-30T09:33:49;95002.22;;;19.36;50.24
46379;BME280;32084;42.254;22.744;2023-04-30T09:36:15;95006.06;;;19.54;50.58
46379;BME280;32084;42.254;22.744;2023-04-30T09:38:41;95009.56;;;19.86;49.24
46379;BME280;32084;42.254;22.744;2023-04-30T09:41:19;95006.56;;;19.76;47.83
46379;BME280;32084;42.254;22.744;2023-04-30T09:43:46;94998.81;;;19.47;47.91
46379;BME280;32084;42.254;22.744;2023-04-30T09:46:12;94996.81;;;19.36;47.59
46379;BME280;32084;42.254;22.744;2023-04-30T09:48:39;94997.31;;;19.20;48.32
46379;BME280;32084;42.254;22.744;2023-04-30T09:51:06;94996.47;;;18.94;48.51
46379;BME280;32084;42.254;22.744;2023-04-30T09:53:32;95003.19;;;18.78;48.78
46379;BME280;32084;42.254;22.744;2023-04-30T09:55:58;95011.03;;;18.41;51.47
46379;BME280;32084;42.254;22.744;2023-04-30T09:58:26;95010.50;;;17.99;54.73
46379;BME280;32084;42.254;22.744;2023-04-30T10:00:53;95025.06;;;17.71;57.68
46379;BME280;32084;42.254;22.744;2023-04-30T10:03:20;95035.22;;;17.43;59.58
46379;BME280;32084;42.254;22.744;2023-04-30T10:05:47;95029.75;;;16.96;60.52
46379;BME280;32084;42.254;22.744;2023-04-30T10:08:56;95025.41;;;16.53;64.06
46379;BME280;32084;42.254;22.744;2023-04-30T10:11:03;95028.16;;;16.60;66.02
46379;BME280;32084;42.254;22.744;2023-04-30T10:13:31;95028.59;;;16.70;63.83
46379;BME280;32084;42.254;22.744;2023-04-30T10:15:58;95025.03;;;16.63;63.83
46379;BME280;32084;42.254;22.744;2023-04-30T10:18:27;95021.75;;;16.68;61.65
46379;BME280;32084;42.254;22.744;2023-04-30T10:20:56;95026.22;;;16.95;63.38
46379;BME280;32084;42.254;22.744;2023-04-30T10:23:23;95005.03;;;16.92;60.77
46379;BME280;32084;42.254;22.744;2023-04-30T10:25:49;94994.56;;;16.76;57.96
46379;BME280;32084;42.254;22.744;2023-04-30T10:28:15;94997.88;;;16.78;60.12
46379;BME280;32084;42.254;22.744;2023-04-30T10:30:41;95002.78;;;17.09;60.52
46379;BME280;32084;42.254;22.744;2023-04-30T10:33:14;95001.16;;;17.55;57.61
46379;BME280;32084;42.254;22.744;2023-04-30T10:35:46;95001.59;;;17.85;55.32
46379;BME280;32084;42.254;22.744;2023-04-30T10:38:16;95004.66;;;18.16;54.64
46379;BME280;32084;42.254;22.744;2023-04-30T10:40:46;94988.13;;;18.37;56.01
46379;BME280;32084;42.254;22.744;2023-04-30T10:43:18;94995.13;;;18.58;53.93
46379;BME280;32084;42.254;22.744;2023-04-30T10:45:45;94989.25;;;18.68;52.95
46379;BME280;32084;42.254;22.744;2023-04-30T10:48:13;94979.03;;;18.70;50.44
46379;BME280;32084;42.254;22.744;2023-04-30T10:50:41;94982.91;;;18.94;51.80
46379;BME280;32084;42.254;22.744;2023-04-30T10:53:10;94983.31;;;18.98;47.86
46379;BME280;32084;42.254;22.744;2023-04-30T10:55:43;94975.91;;;19.18;48.17
46379;BME280;32084;42.254;22.744;2023-04-30T10:58:22;94968.88;;;19.36;48.17
46379;BME280;32084;42.254;22.744;2023-04-30T11:00:50;94969.66;;;19.93;48.24
46379;BME280;32084;42.254;22.744;2023-04-30T11:03:16;94972.03;;;20.26;44.61
46379;BME280;32084;42.254;22.744;2023-04-30T11:05:42;94958.16;;;20.72;47.31
46379;BME280;32084;42.254;22.744;2023-04-30T11:08:11;94960.00;;;20.90;46.08
46379;BME280;32084;42.254;22.744;2023-04-30T11:10:46;94959.63;;;21.16;45.19
46379;BME280;32084;42.254;22.744;2023-04-30T11:13:21;94956.75;;;21.11;44.30
46379;BME280;32084;42.254;22.744;2023-04-30T11:15:47;94949.88;;;20.97;45.36
46379;BME280;32084;42.254;22.744;2023-04-30T11:18:13;94948.88;;;21.21;45.63
46379;BME280;32084;42.254;22.744;2023-04-30T11:20:40;94946.63;;;21.30;44.88
46379;BME280;32084;42.254;22.744;2023-04-30T11:25:39;94954.53;;;21.50;44.48
46379;BME280;32084;42.254;22.744;2023-04-30T11:28:06;94949.22;;;21.67;44.00
46379;BME280;32084;42.254;22.744;2023-04-30T11:30:32;94952.03;;;21.49;45.26
46379;BME280;32084;42.254;22.744;2023-04-30T11:32:59;94954.78;;;21.60;43.73
46379;BME280;32084;42.254;22.744;2023-04-30T11:35:26;94947.47;;;21.73;43.79
46379;BME280;32084;42.254;22.744;2023-04-30T11:37:54;94950.53;;;22.00;44.29
46379;BME280;32084;42.254;22.744;2023-04-30T11:40:20;94945.69;;;21.90;42.95
46379;BME280;32084;42.254;22.744;2023-04-30T11:42:46;94946.88;;;21.82;43.52
46379;BME280;32084;42.254;22.744;2023-04-30T11:45:13;94938.72;;;21.59;42.54
46379;BME280;32084;42.254;22.744;2023-04-30T11:47:45;94941.88;;;21.02;42.71
46379;BME280;32084;42.254;22.744;2023-04-30T11:50:13;94926.94;;;20.93;42.53
46379;BME280;32084;42.254;22.744;2023-04-30T11:52:39;94923.81;;;21.19;44.32
46379;BME280;32084;42.254;22.744;2023-04-30T11:55:12;94921.19;;;21.13;43.93
46379;BME280;32084;42.254;22.744;2023-04-30T11:57:40;94915.56;;;21.38;44.01
46379;BME280;32084;42.254;22.744;2023-04-30T12:00:06;94916.31;;;21.57;42.94
46379;BME280;32084;42.254;22.744;2023-04-30T12:02:34;94920.25;;;21.61;42.09
46379;BME280;32084;42.254;22.744;2023-04-30T12:05:01;94907.69;;;21.48;43.43
46379;BME280;32084;42.254;22.744;2023-04-30T12:07:27;94902.97;;;21.67;42.89
46379;BME280;32084;42.254;22.744;2023-04-30T12:09:53;94914.31;;;21.99;42.06
46379;BME280;32084;42.254;22.744;2023-04-30T12:12:26;94900.94;;;21.62;40.89
46379;BME280;32084;42.254;22.744;2023-04-30T12:14:52;94903.22;;;21.66;42.59
46379;BME280;32084;42.254;22.744;2023-04-30T12:17:31;94903.91;;;21.49;40.71
46379;BME280;32084;42.254;22.744;2023-04-30T12:19:58;94900.91;;;21.39;42.54
46379;BME280;32084;42.254;22.744;2023-04-30T12:22:24;94896.00;;;21.05;42.85
46379;BME280;32084;42.254;22.744;2023-04-30T12:24:50;94890.84;;;20.74;43.71
46379;BME280;32084;42.254;22.744;2023-04-30T12:27:16;94896.72;;;20.52;43.81
46379;BME280;32084;42.254;22.744;2023-04-30T12:29:43;94890.19;;;20.60;44.92
46379;BME280;32084;42.254;22.744;2023-04-30T12:32:13;94892.91;;;20.60;44.43
46379;BME280;32084;42.254;22.744;2023-04-30T12:34:41;94885.88;;;20.71;43.93
46379;BME280;32084;42.254;22.744;2023-04-30T12:37:07;94884.44;;;20.68;43.72
46379;BME280;32084;42.254;22.744;2023-04-30T12:39:33;94883.50;;;21.28;43.35
46379;BME280;32084;42.254;22.744;2023-04-30T12:42:00;94880.72;;;21.47;40.11
46379;BME280;32084;42.254;22.744;2023-04-30T12:44:26;94873.50;;;21.29;42.24
46379;BME280;32084;42.254;22.744;2023-04-30T12:46:53;94869.09;;;21.16;42.46
46379;BME280;32084;42.254;22.744;2023-04-30T12:49:26;94869.69;;;21.30;42.00
46379;BME280;32084;42.254;22.744;2023-04-30T12:51:56;94867.78;;;21.30;40.88
46379;BME280;32084;42.254;22.744;2023-04-30T12:54:23;94864.72;;;21.26;40.43
46379;BME280;32084;42.254;22.744;2023-04-30T12:57:00;94855.66;;;21.56;40.60
46379;BME280;32084;42.254;22.744;2023-04-30T12:59:27;94853.53;;;21.47;40.46
46379;BME280;32084;42.254;22.744;2023-04-30T13:01:53;94849.47;;;21.02;39.71
46379;BME280;32084;42.254;22.744;2023-04-30T13:04:20;94839.63;;;20.89;40.66
46379;BME280;32084;42.254;22.744;2023-04-30T13:06:46;94846.78;;;20.72;39.72
46379;BME280;32084;42.254;22.744;2023-04-30T13:09:12;94844.16;;;20.65;40.25
46379;BME280;32084;42.254;22.744;2023-04-30T13:11:38;94840.78;;;20.81;39.25
46379;BME280;32084;42.254;22.744;2023-04-30T13:14:04;94841.91;;;21.04;39.05
46379;BME280;32084;42.254;22.744;2023-04-30T13:16:30;94841.53;;;21.12;39.37